createdAt,value
2019-02-21T00:02:22.677Z,959.58
2019-02-21T00:04:48.988Z,959.57
2019-02-21T00:07:15.288Z,959.56
2019-02-21T00:09:41.607Z,959.60
2019-02-21T00:12:07.908Z,959.64
2019-02-21T00:14:34.211Z,959.63
2019-02-21T00:17:00.516Z,959.58
2019-02-21T00:19:26.824Z,959.58
2019-02-21T00:21:53.133Z,959.54
2019-02-21T00:24:19.466Z,959.55
2019-02-21T00:26:45.773Z,959.51
2019-02-21T00:29:12.075Z,959.48
2019-02-21T00:31:40.131Z,959.50
2019-02-21T00:34:05.741Z,959.51
2019-02-21T00:36:32.047Z,959.55
2019-02-21T00:38:58.427Z,959.54
2019-02-21T00:41:24.736Z,959.53
2019-02-21T00:43:51.049Z,959.59
2019-02-21T00:46:17.377Z,959.49
2019-02-21T00:48:43.682Z,959.49
2019-02-21T00:51:09.988Z,959.51
2019-02-21T00:53:36.292Z,959.56
2019-02-21T00:56:02.608Z,959.48
2019-02-21T00:58:28.914Z,959.38
2019-02-21T01:00:55.227Z,959.42
2019-02-21T01:03:21.539Z,959.44
2019-02-21T01:05:47.845Z,959.45
2019-02-21T01:08:14.154Z,959.33
2019-02-21T01:10:40.467Z,959.29
2019-02-21T01:13:06.812Z,959.23
2019-02-21T01:15:33.085Z,959.23
2019-02-21T01:17:59.397Z,959.21
2019-02-21T01:20:25.704Z,959.29
2019-02-21T01:22:52.013Z,959.25
2019-02-21T01:25:18.316Z,959.19
2019-02-21T01:27:44.628Z,959.24
2019-02-21T01:30:10.944Z,959.31
2019-02-21T01:32:37.260Z,959.29
2019-02-21T01:35:03.566Z,959.30
2019-02-21T01:37:29.878Z,959.34
2019-02-21T01:39:56.185Z,959.29
2019-02-21T01:42:22.492Z,959.33
2019-02-21T01:44:48.801Z,959.27
2019-02-21T01:47:15.108Z,959.28
2019-02-21T01:49:41.428Z,959.20
2019-02-21T01:52:07.739Z,959.24
2019-02-21T01:54:34.043Z,959.29
2019-02-21T01:57:00.352Z,959.36
2019-02-21T01:59:26.660Z,959.26
2019-02-21T02:01:52.969Z,959.28
2019-02-21T02:04:19.277Z,959.29
2019-02-21T02:06:45.587Z,959.24
2019-02-21T02:09:11.922Z,959.33
2019-02-21T02:11:38.220Z,959.31
2019-02-21T02:14:04.531Z,959.33
2019-02-21T02:16:30.841Z,959.31
2019-02-21T02:18:57.143Z,959.35
2019-02-21T02:21:23.455Z,959.44
2019-02-21T02:23:49.763Z,959.39
2019-02-21T02:26:16.097Z,959.42
2019-02-21T02:28:42.408Z,959.44
2019-02-21T02:31:21.541Z,959.45
2019-02-21T02:33:35.029Z,959.43
2019-02-21T02:36:01.335Z,959.50
2019-02-21T02:38:27.645Z,959.59
2019-02-21T02:40:53.960Z,959.58
2019-02-21T02:43:20.284Z,959.53
2019-02-21T02:45:46.585Z,959.54
2019-02-21T02:48:12.909Z,959.46
2019-02-21T02:50:39.203Z,959.50
2019-02-21T02:53:05.512Z,959.50
2019-02-21T02:55:31.826Z,959.54
2019-02-21T02:57:58.135Z,959.60
2019-02-21T03:00:24.446Z,959.61
2019-02-21T03:02:50.778Z,959.67
2019-02-21T03:05:17.129Z,959.57
2019-02-21T03:07:43.389Z,959.55
2019-02-21T03:10:09.699Z,959.67
2019-02-21T03:12:36.009Z,959.80
2019-02-21T03:15:02.340Z,959.77
2019-02-21T03:17:28.626Z,959.78
2019-02-21T03:19:54.937Z,959.85
2019-02-21T03:22:21.246Z,959.81
2019-02-21T03:24:47.561Z,959.87
2019-02-21T03:27:13.868Z,959.87
2019-02-21T03:29:40.198Z,959.98
2019-02-21T03:32:06.535Z,959.98
2019-02-21T03:34:32.840Z,960.04
2019-02-21T03:36:59.145Z,960.14
2019-02-21T03:39:25.484Z,960.22
2019-02-21T03:41:51.761Z,960.24
2019-02-21T03:44:18.072Z,960.24
2019-02-21T03:46:44.380Z,960.14
2019-02-21T03:49:10.687Z,960.09
2019-02-21T03:51:36.991Z,960.20
2019-02-21T03:54:03.315Z,960.32
2019-02-21T03:56:29.620Z,960.37
2019-02-21T03:58:55.934Z,960.39
2019-02-21T04:01:22.248Z,960.28
2019-02-21T04:03:48.583Z,960.30
2019-02-21T04:06:14.897Z,960.34
2019-02-21T04:08:41.214Z,960.44
2019-02-21T04:11:07.525Z,960.52
2019-02-21T04:13:33.827Z,960.47
2019-02-21T04:16:00.139Z,960.44
2019-02-21T04:18:26.446Z,960.46
2019-02-21T04:20:52.753Z,960.62
2019-02-21T04:23:19.056Z,960.62
2019-02-21T04:25:45.365Z,960.66
2019-02-21T04:28:11.665Z,960.57
2019-02-21T04:30:37.980Z,960.52
2019-02-21T04:33:04.285Z,960.59
2019-02-21T04:35:30.592Z,960.59
2019-02-21T04:37:56.940Z,960.60
2019-02-21T04:40:23.246Z,960.60
2019-02-21T04:42:49.554Z,960.56
2019-02-21T04:45:15.856Z,960.61
2019-02-21T04:47:42.165Z,960.70
2019-02-21T04:50:08.472Z,960.70
2019-02-21T04:52:34.793Z,960.67
2019-02-21T04:55:01.112Z,960.64
2019-02-21T04:57:27.430Z,960.72
2019-02-21T04:59:53.735Z,960.71
2019-02-21T05:02:28.498Z,960.74
2019-02-21T05:04:46.355Z,960.72
2019-02-21T05:07:12.660Z,960.67
2019-02-21T05:09:38.972Z,960.70
2019-02-21T05:12:05.275Z,960.71
2019-02-21T05:14:31.587Z,960.80
2019-02-21T05:17:00.528Z,960.83
2019-02-21T05:19:24.209Z,960.77
2019-02-21T05:21:50.518Z,960.81
2019-02-21T05:24:16.825Z,960.82
2019-02-21T05:26:43.142Z,960.84
2019-02-21T05:29:09.455Z,960.88
2019-02-21T05:31:35.763Z,960.86
2019-02-21T05:34:02.072Z,960.85
2019-02-21T05:36:28.382Z,960.90
2019-02-21T05:38:54.713Z,961.02
2019-02-21T05:41:21.029Z,961.06
2019-02-21T05:43:47.339Z,961.12
2019-02-21T05:46:13.645Z,961.09
2019-02-21T05:48:40.290Z,961.19
2019-02-21T05:51:06.257Z,961.17
2019-02-21T05:53:32.565Z,961.24
2019-02-21T05:55:58.872Z,961.22
2019-02-21T05:58:25.187Z,961.25
2019-02-21T06:00:51.493Z,961.32
2019-02-21T06:03:17.812Z,961.42
2019-02-21T06:05:44.126Z,961.40
2019-02-21T06:08:10.435Z,961.44
2019-02-21T06:10:36.747Z,961.44
2019-02-21T06:13:03.062Z,961.46
2019-02-21T06:15:29.367Z,961.48
2019-02-21T06:17:55.679Z,961.50
2019-02-21T06:20:21.996Z,961.48
2019-02-21T06:22:48.303Z,961.53
2019-02-21T06:25:14.617Z,961.54
2019-02-21T06:27:40.929Z,961.62
2019-02-21T06:30:07.236Z,961.71
2019-02-21T06:32:33.549Z,961.67
2019-02-21T06:35:02.404Z,961.70
2019-02-21T06:37:26.157Z,961.63
2019-02-21T06:39:52.495Z,961.67
2019-02-21T06:42:18.787Z,961.78
2019-02-21T06:44:45.104Z,961.80
2019-02-21T06:47:11.416Z,961.79
2019-02-21T06:49:37.725Z,961.86
2019-02-21T06:52:04.054Z,961.78
2019-02-21T06:54:30.353Z,961.87
2019-02-21T06:56:56.659Z,961.92
2019-02-21T06:59:23.735Z,961.87
2019-02-21T07:01:49.278Z,961.91
2019-02-21T07:04:15.587Z,961.87
2019-02-21T07:06:41.893Z,961.92
2019-02-21T07:09:08.199Z,962.01
2019-02-21T07:11:34.509Z,962.02
2019-02-21T07:14:00.829Z,962.07
2019-02-21T07:16:27.136Z,961.99
2019-02-21T07:18:53.450Z,962.03
2019-02-21T07:21:19.761Z,962.09
2019-02-21T07:23:46.067Z,962.14
2019-02-21T07:26:12.368Z,962.17
2019-02-21T07:28:40.878Z,962.09
2019-02-21T07:31:05.009Z,962.18
2019-02-21T07:33:31.338Z,962.16
2019-02-21T07:35:57.643Z,962.15
2019-02-21T07:38:23.970Z,962.18
2019-02-21T07:40:50.269Z,962.16
2019-02-21T07:43:16.593Z,962.19
2019-02-21T07:45:42.904Z,962.15
2019-02-21T07:48:09.209Z,962.27
2019-02-21T07:50:35.521Z,962.26
2019-02-21T07:53:02.830Z,962.18
2019-02-21T07:55:28.280Z,962.14
2019-02-21T07:57:54.585Z,962.23
2019-02-21T08:00:20.897Z,962.30
2019-02-21T08:02:47.227Z,962.31
2019-02-21T08:05:13.537Z,962.29
2019-02-21T08:07:39.842Z,962.32
2019-02-21T08:10:06.159Z,962.30
2019-02-21T08:12:32.505Z,962.23
2019-02-21T08:14:58.823Z,962.24
2019-02-21T08:17:27.767Z,962.27
2019-02-21T08:19:51.620Z,962.21
2019-02-21T08:22:18.043Z,962.17
2019-02-21T08:24:44.367Z,962.18
2019-02-21T08:27:10.679Z,962.22
2019-02-21T08:29:36.990Z,962.19
2019-02-21T08:32:03.310Z,962.14
2019-02-21T08:34:29.679Z,962.20
2019-02-21T08:36:55.992Z,962.20
2019-02-21T08:39:22.339Z,962.20
2019-02-21T08:41:48.651Z,962.20
2019-02-21T08:44:14.965Z,962.29
2019-02-21T08:46:41.275Z,962.27
2019-02-21T08:49:07.584Z,962.22
2019-02-21T08:51:33.897Z,962.20
2019-02-21T08:54:00.210Z,962.26
2019-02-21T08:56:26.524Z,962.24
2019-02-21T08:58:52.866Z,962.22
2019-02-21T09:01:19.255Z,962.30
2019-02-21T09:03:45.481Z,962.16
2019-02-21T09:06:13.000Z,962.19
2019-02-21T09:08:38.100Z,962.16
2019-02-21T09:11:04.454Z,962.05
2019-02-21T09:13:30.761Z,962.18
2019-02-21T09:15:57.069Z,962.23
2019-02-21T09:18:23.383Z,962.19
2019-02-21T09:20:49.754Z,962.17
2019-02-21T09:23:16.030Z,962.22
2019-02-21T09:25:42.327Z,962.22
2019-02-21T09:28:08.642Z,962.26
2019-02-21T09:30:34.954Z,962.16
2019-02-21T09:33:01.263Z,962.20
2019-02-21T09:35:27.626Z,962.20
2019-02-21T09:37:53.939Z,962.10
2019-02-21T09:40:20.248Z,962.19
2019-02-21T09:42:46.587Z,962.12
2019-02-21T09:45:14.827Z,962.01
2019-02-21T09:47:39.200Z,962.07
2019-02-21T09:50:05.505Z,962.02
2019-02-21T09:52:31.842Z,962.03
2019-02-21T09:54:58.149Z,962.01
2019-02-21T09:57:24.477Z,961.95
2019-02-21T09:59:50.786Z,961.95
2019-02-21T10:02:17.113Z,961.99
2019-02-21T10:04:43.416Z,961.99
2019-02-21T10:07:09.737Z,961.95
2019-02-21T10:09:36.136Z,961.92
2019-02-21T10:12:03.300Z,961.90
2019-02-21T10:14:28.656Z,961.86
2019-02-21T10:16:54.970Z,961.91
2019-02-21T10:19:21.277Z,961.84
2019-02-21T10:21:47.603Z,961.81
2019-02-21T10:24:13.907Z,961.76
2019-02-21T10:26:40.219Z,961.77
2019-02-21T10:29:06.523Z,961.69
2019-02-21T10:31:32.847Z,961.71
2019-02-21T10:33:59.223Z,961.67
2019-02-21T10:36:25.459Z,961.68
2019-02-21T10:38:51.767Z,961.69
2019-02-21T10:41:18.079Z,961.53
2019-02-21T10:43:44.398Z,961.49
2019-02-21T10:46:10.709Z,961.49
2019-02-21T10:48:37.019Z,961.45
2019-02-21T10:51:03.332Z,961.41
2019-02-21T10:53:29.643Z,961.36
2019-02-21T10:55:55.944Z,961.43
2019-02-21T10:58:22.259Z,961.32
2019-02-21T11:00:48.574Z,961.22
2019-02-21T11:03:14.880Z,961.27
2019-02-21T11:05:41.187Z,961.24
2019-02-21T11:08:07.497Z,961.17
2019-02-21T11:10:33.804Z,961.13
2019-02-21T11:13:00.115Z,961.07
2019-02-21T11:15:26.427Z,961.05
2019-02-21T11:17:52.743Z,961.01
2019-02-21T11:20:19.059Z,961.01
2019-02-21T11:22:45.370Z,961.03
2019-02-21T11:25:11.677Z,960.95
2019-02-21T11:27:37.993Z,960.91
2019-02-21T11:30:04.300Z,960.85
2019-02-21T11:32:30.624Z,960.84
2019-02-21T11:35:05.763Z,960.86
2019-02-21T11:37:23.257Z,960.85
2019-02-21T11:39:49.568Z,960.95
2019-02-21T11:42:15.872Z,960.84
2019-02-21T11:44:42.192Z,960.77
2019-02-21T11:47:08.508Z,960.86
2019-02-21T11:49:34.825Z,960.76
2019-02-21T11:52:09.786Z,960.65
2019-02-21T11:54:27.541Z,960.62
2019-02-21T11:56:53.757Z,960.71
2019-02-21T11:59:20.122Z,960.70
2019-02-21T12:01:46.371Z,960.67
2019-02-21T12:04:12.685Z,960.63
2019-02-21T12:06:38.999Z,960.55
2019-02-21T12:09:05.310Z,960.57
2019-02-21T12:11:31.609Z,960.48
2019-02-21T12:13:57.921Z,960.52
2019-02-21T12:16:24.228Z,960.50
2019-02-21T12:18:50.551Z,960.51
2019-02-21T12:21:16.856Z,960.39
2019-02-21T12:23:43.164Z,960.46
2019-02-21T12:26:09.474Z,960.34
2019-02-21T12:28:35.785Z,960.38
2019-02-21T12:31:02.187Z,960.31
2019-02-21T12:33:28.411Z,960.30
2019-02-21T12:35:54.712Z,960.29
2019-02-21T12:38:21.047Z,960.35
2019-02-21T12:40:47.354Z,960.38
2019-02-21T12:43:13.665Z,960.38
2019-02-21T12:45:39.979Z,960.37
2019-02-21T12:48:06.285Z,960.45
2019-02-21T12:50:43.649Z,960.41
2019-02-21T12:52:58.899Z,960.37
2019-02-21T12:55:29.245Z,960.26
2019-02-21T12:57:51.517Z,960.27
2019-02-21T13:00:17.827Z,960.23
2019-02-21T13:02:44.139Z,960.18
2019-02-21T13:05:10.450Z,960.24
2019-02-21T13:07:36.767Z,960.15
2019-02-21T13:10:03.081Z,960.12
2019-02-21T13:12:29.404Z,960.24
2019-02-21T13:14:55.714Z,960.23
2019-02-21T13:17:22.022Z,960.11
2019-02-21T13:19:48.341Z,960.23
2019-02-21T13:22:14.648Z,960.17
2019-02-21T13:24:40.956Z,960.22
2019-02-21T13:27:07.269Z,960.11
2019-02-21T13:29:33.578Z,960.10
2019-02-21T13:31:59.888Z,960.07
2019-02-21T13:34:26.216Z,960.06
2019-02-21T13:36:52.512Z,959.98
2019-02-21T13:39:18.828Z,960.05
2019-02-21T13:41:45.132Z,960.03
2019-02-21T13:44:11.445Z,960.02
2019-02-21T13:46:40.863Z,960.02
2019-02-21T13:49:04.055Z,960.11
2019-02-21T13:51:30.365Z,960.00
2019-02-21T13:53:56.689Z,959.92
2019-02-21T13:56:22.998Z,959.92
2019-02-21T13:58:49.323Z,959.91
2019-02-21T14:01:15.621Z,959.97
2019-02-21T14:03:41.936Z,959.95
2019-02-21T14:06:08.254Z,959.97
2019-02-21T14:08:34.563Z,960.00
2019-02-21T14:11:00.878Z,960.01
2019-02-21T14:13:27.190Z,959.98
2019-02-21T14:15:53.492Z,960.01
2019-02-21T14:18:19.805Z,959.94
2019-02-21T14:20:46.121Z,959.95
2019-02-21T14:23:12.427Z,959.83
2019-02-21T14:25:41.089Z,959.84
2019-02-21T14:28:05.040Z,959.80
2019-02-21T14:30:31.353Z,959.84
2019-02-21T14:32:57.996Z,959.80
2019-02-21T14:35:24.300Z,959.76
2019-02-21T14:37:50.609Z,959.80
2019-02-21T14:40:16.921Z,959.74
2019-02-21T14:42:43.224Z,959.74
2019-02-21T14:45:12.177Z,959.67
2019-02-21T14:47:35.845Z,959.69
2019-02-21T14:50:04.565Z,959.72
2019-02-21T14:52:28.463Z,959.79
2019-02-21T14:54:54.772Z,959.82
2019-02-21T14:57:21.082Z,959.70
2019-02-21T14:59:47.393Z,959.75
2019-02-21T15:02:13.697Z,959.75
2019-02-21T15:04:40.008Z,959.70
2019-02-21T15:07:06.684Z,959.74
2019-02-21T15:09:32.650Z,959.68
2019-02-21T15:11:58.957Z,959.77
2019-02-21T15:14:25.261Z,959.75
2019-02-21T15:16:51.574Z,959.75
2019-02-21T15:19:17.881Z,959.69
2019-02-21T15:21:44.209Z,959.73
2019-02-21T15:24:12.993Z,959.83
2019-02-21T15:26:36.837Z,959.70
2019-02-21T15:29:03.154Z,959.70
2019-02-21T15:31:29.551Z,959.79
2019-02-21T15:33:55.856Z,959.81
2019-02-21T15:36:22.166Z,959.84
2019-02-21T15:38:48.476Z,959.79
2019-02-21T15:41:14.785Z,959.79
2019-02-21T15:43:41.094Z,959.85
2019-02-21T15:46:07.578Z,959.83
2019-02-21T15:48:33.718Z,959.83
2019-02-21T15:51:00.023Z,959.80
2019-02-21T15:53:26.328Z,959.81
2019-02-21T15:55:52.643Z,959.78
2019-02-21T15:58:18.948Z,959.77
2019-02-21T16:00:45.259Z,959.80
2019-02-21T16:03:11.565Z,959.77
2019-02-21T16:05:37.881Z,959.82
2019-02-21T16:08:04.190Z,959.80
2019-02-21T16:10:30.524Z,959.88
2019-02-21T16:12:57.115Z,959.87
2019-02-21T16:15:23.172Z,959.83
2019-02-21T16:17:49.477Z,959.87
2019-02-21T16:20:15.800Z,959.88
2019-02-21T16:22:42.086Z,959.97
2019-02-21T16:25:08.395Z,959.97
2019-02-21T16:27:34.701Z,960.07
2019-02-21T16:30:01.008Z,960.00
2019-02-21T16:32:27.319Z,959.99
2019-02-21T16:34:53.662Z,960.05
2019-02-21T16:37:19.954Z,960.09
2019-02-21T16:39:46.260Z,960.09
2019-02-21T16:42:12.572Z,960.13
2019-02-21T16:44:38.885Z,960.18
2019-02-21T16:47:05.818Z,960.23
2019-02-21T16:49:31.499Z,960.28
2019-02-21T16:51:57.809Z,960.20
2019-02-21T16:54:24.112Z,960.29
2019-02-21T16:56:50.416Z,960.25
2019-02-21T16:59:16.724Z,960.29
2019-02-21T17:01:43.045Z,960.29
2019-02-21T17:04:09.356Z,960.32
2019-02-21T17:06:35.666Z,960.29
2019-02-21T17:09:01.971Z,960.28
2019-02-21T17:11:28.290Z,960.33
2019-02-21T17:13:54.592Z,960.27
2019-02-21T17:16:20.903Z,960.31
2019-02-21T17:18:47.210Z,960.29
2019-02-21T17:21:13.513Z,960.28
2019-02-21T17:23:39.827Z,960.26
2019-02-21T17:26:06.130Z,960.16
2019-02-21T17:28:32.430Z,960.24
2019-02-21T17:30:58.734Z,960.23
2019-02-21T17:33:25.052Z,960.30
2019-02-21T17:35:51.356Z,960.28
2019-02-21T17:38:17.665Z,960.26
2019-02-21T17:40:43.972Z,960.26
2019-02-21T17:43:10.285Z,960.29
2019-02-21T17:45:36.594Z,960.22
2019-02-21T17:48:02.905Z,960.24
2019-02-21T17:50:29.218Z,960.18
2019-02-21T17:52:55.546Z,960.14
2019-02-21T17:55:21.847Z,960.17
2019-02-21T17:57:48.160Z,960.18
2019-02-21T18:00:17.051Z,960.15
2019-02-21T18:02:40.790Z,960.17
2019-02-21T18:05:07.079Z,960.13
2019-02-21T18:07:36.413Z,960.08
2019-02-21T18:09:59.689Z,960.06
2019-02-21T18:12:25.994Z,960.12
2019-02-21T18:14:52.300Z,960.14
2019-02-21T18:17:18.606Z,960.13
2019-02-21T18:19:44.910Z,960.10
2019-02-21T18:22:11.258Z,960.08
2019-02-21T18:24:37.570Z,960.08
2019-02-21T18:27:03.902Z,960.03
2019-02-21T18:29:30.212Z,960.16
2019-02-21T18:31:56.516Z,960.14
2019-02-21T18:34:22.815Z,960.09
2019-02-21T18:36:49.119Z,960.10
2019-02-21T18:39:15.443Z,960.14
2019-02-21T18:41:41.748Z,960.15
2019-02-21T18:44:08.089Z,960.14
2019-02-21T18:46:34.397Z,960.17
2019-02-21T18:49:00.700Z,960.19
2019-02-21T18:51:27.333Z,960.17
2019-02-21T18:53:53.646Z,960.17
2019-02-21T18:56:19.955Z,960.14
2019-02-21T18:58:46.260Z,960.20
2019-02-21T19:01:12.571Z,960.20
2019-02-21T19:03:38.882Z,960.16
2019-02-21T19:06:05.227Z,960.23
2019-02-21T19:08:31.537Z,960.17
2019-02-21T19:10:57.843Z,960.18
2019-02-21T19:13:24.152Z,960.17
2019-02-21T19:15:50.456Z,960.16
2019-02-21T19:18:16.777Z,960.20
2019-02-21T19:20:43.083Z,960.20
2019-02-21T19:23:09.396Z,960.17
2019-02-21T19:25:35.738Z,960.17
2019-02-21T19:28:02.050Z,960.12
2019-02-21T19:30:28.441Z,960.21
2019-02-21T19:32:54.679Z,960.25
2019-02-21T19:35:20.984Z,960.21
2019-02-21T19:37:47.290Z,960.22
2019-02-21T19:40:13.614Z,960.29
2019-02-21T19:42:39.968Z,960.24
2019-02-21T19:45:06.279Z,960.30
2019-02-21T19:47:32.584Z,960.32
2019-02-21T19:49:58.889Z,960.39
2019-02-21T19:52:25.191Z,960.37
2019-02-21T19:54:51.509Z,960.36
2019-02-21T19:57:17.852Z,960.32
2019-02-21T19:59:44.284Z,960.39
2019-02-21T20:02:10.630Z,960.29
2019-02-21T20:04:36.939Z,960.31
2019-02-21T20:07:03.249Z,960.27
2019-02-21T20:09:29.558Z,960.22
2019-02-21T20:11:55.871Z,960.24
2019-02-21T20:14:22.188Z,960.24
2019-02-21T20:16:48.539Z,960.14
2019-02-21T20:19:14.847Z,960.21
2019-02-21T20:21:41.152Z,960.20
2019-02-21T20:24:07.455Z,960.13
2019-02-21T20:26:33.771Z,960.11
2019-02-21T20:29:00.080Z,960.10
2019-02-21T20:31:26.384Z,960.06
2019-02-21T20:33:52.692Z,960.09
2019-02-21T20:36:18.995Z,960.07
2019-02-21T20:38:45.298Z,960.09
2019-02-21T20:41:11.615Z,960.08
2019-02-21T20:43:37.925Z,960.07
2019-02-21T20:46:04.232Z,960.07
2019-02-21T20:48:30.725Z,960.07
2019-02-21T20:50:57.426Z,959.98
2019-02-21T20:53:23.174Z,960.02
2019-02-21T20:55:49.483Z,959.98
2019-02-21T20:58:15.788Z,959.95
2019-02-21T21:00:42.118Z,959.91
2019-02-21T21:03:08.421Z,959.85
2019-02-21T21:05:34.728Z,959.84
2019-02-21T21:08:01.036Z,959.73
2019-02-21T21:10:27.345Z,959.73
2019-02-21T21:12:53.656Z,959.73
2019-02-21T21:15:19.960Z,959.71
2019-02-21T21:17:46.273Z,959.69
2019-02-21T21:20:16.462Z,959.68
2019-02-21T21:22:38.884Z,959.66
2019-02-21T21:25:05.189Z,959.65
2019-02-21T21:27:31.495Z,959.65
2019-02-21T21:29:57.800Z,959.62
2019-02-21T21:32:24.111Z,959.59
2019-02-21T21:34:50.423Z,959.61
2019-02-21T21:37:16.734Z,959.62
2019-02-21T21:39:43.039Z,959.58
2019-02-21T21:42:09.356Z,959.62
2019-02-21T21:44:35.660Z,959.57
2019-02-21T21:47:01.964Z,959.62
2019-02-21T21:49:28.277Z,959.59
2019-02-21T21:51:54.579Z,959.63
2019-02-21T21:54:20.886Z,959.63
2019-02-21T21:56:47.192Z,959.63
2019-02-21T21:59:13.499Z,959.63
2019-02-21T22:01:39.817Z,959.58
2019-02-21T22:04:06.121Z,959.65
2019-02-21T22:06:32.429Z,959.63
2019-02-21T22:09:04.689Z,959.70
2019-02-21T22:11:25.075Z,959.73
2019-02-21T22:13:51.395Z,959.71
2019-02-21T22:16:17.734Z,959.73
2019-02-21T22:18:44.053Z,959.81
2019-02-21T22:21:10.386Z,959.73
2019-02-21T22:23:36.745Z,959.73
2019-02-21T22:26:03.040Z,959.72
2019-02-21T22:28:29.372Z,959.78
2019-02-21T22:30:57.944Z,959.70
2019-02-21T22:33:22.026Z,959.73
2019-02-21T22:35:48.352Z,959.72
2019-02-21T22:38:14.695Z,959.81
2019-02-21T22:40:41.013Z,959.76
2019-02-21T22:43:07.335Z,959.75
2019-02-21T22:45:33.665Z,959.76
2019-02-21T22:47:59.986Z,959.68
2019-02-21T22:50:26.944Z,959.65
2019-02-21T22:52:52.640Z,959.68
2019-02-21T22:55:18.969Z,959.66
2019-02-21T22:57:45.291Z,959.66
2019-02-21T23:00:11.615Z,959.64
2019-02-21T23:02:37.944Z,959.67
2019-02-21T23:05:04.277Z,959.62
2019-02-21T23:07:30.600Z,959.60
2019-02-21T23:09:56.917Z,959.60
2019-02-21T23:12:23.238Z,959.58
2019-02-21T23:14:49.563Z,959.55
2019-02-21T23:17:15.887Z,959.54
2019-02-21T23:19:42.195Z,959.55
2019-02-21T23:22:08.499Z,959.53
2019-02-21T23:24:34.818Z,959.49
2019-02-21T23:27:01.130Z,959.53
2019-02-21T23:29:27.436Z,959.49
2019-02-21T23:31:53.745Z,959.44
2019-02-21T23:34:20.072Z,959.48
2019-02-21T23:36:46.383Z,959.42
2019-02-21T23:39:12.691Z,959.40
2019-02-21T23:41:38.998Z,959.40
2019-02-21T23:44:05.312Z,959.40
2019-02-21T23:46:31.623Z,959.42
2019-02-21T23:48:57.928Z,959.40
2019-02-21T23:51:24.273Z,959.33
2019-02-21T23:53:50.584Z,959.37
2019-02-21T23:56:16.892Z,959.39
2019-02-21T23:58:43.206Z,959.39
